sensor_id;sensor_type;location;lat;lon;timestamp;temperature;humidity
40868;DHT22;26586;50.708;22.412;2022-08-25T00:01:58;26.60;61.50
40868;DHT22;26586;50.708;22.412;2022-08-25T00:04:26;26.60;61.50
40868;DHT22;26586;50.708;22.412;2022-08-25T00:06:54;26.50;61.40
40868;DHT22;26586;50.708;22.412;2022-08-25T00:09:23;26.50;61.40
40868;DHT22;26586;50.708;22.412;2022-08-25T00:11:49;26.50;61.40
40868;DHT22;26586;50.708;22.412;2022-08-25T00:14:24;26.50;61.30
40868;DHT22;26586;50.708;22.412;2022-08-25T00:16:51;26.50;61.30
40868;DHT22;26586;50.708;22.412;2022-08-25T00:19:19;26.50;61.20
40868;DHT22;26586;50.708;22.412;2022-08-25T00:21:46;26.50;61.20
40868;DHT22;26586;50.708;22.412;2022-08-25T00:24:14;26.50;61.10
40868;DHT22;26586;50.708;22.412;2022-08-25T00:26:43;26.50;61.00
40868;DHT22;26586;50.708;22.412;2022-08-25T00:29:10;26.50;61.00
40868;DHT22;26586;50.708;22.412;2022-08-25T00:31:37;26.50;60.90
40868;DHT22;26586;50.708;22.412;2022-08-25T00:34:04;26.40;60.80
40868;DHT22;26586;50.708;22.412;2022-08-25T00:36:33;26.40;60.70
40868;DHT22;26586;50.708;22.412;2022-08-25T00:38:59;26.40;60.60
40868;DHT22;26586;50.708;22.412;2022-08-25T00:41:25;26.40;60.60
40868;DHT22;26586;50.708;22.412;2022-08-25T00:43:59;26.40;60.60
40868;DHT22;26586;50.708;22.412;2022-08-25T00:46:36;26.40;60.60
40868;DHT22;26586;50.708;22.412;2022-08-25T00:49:10;26.40;60.60
40868;DHT22;26586;50.708;22.412;2022-08-25T00:52:10;26.30;60.40
40868;DHT22;26586;50.708;22.412;2022-08-25T00:57:43;26.30;60.30
40868;DHT22;26586;50.708;22.412;2022-08-25T01:00:21;26.30;60.30
40868;DHT22;26586;50.708;22.412;2022-08-25T01:02:48;26.30;60.30
40868;DHT22;26586;50.708;22.412;2022-08-25T01:05:14;26.30;60.20
40868;DHT22;26586;50.708;22.412;2022-08-25T01:07:42;26.30;60.10
40868;DHT22;26586;50.708;22.412;2022-08-25T01:10:09;26.30;60.20
40868;DHT22;26586;50.708;22.412;2022-08-25T01:12:36;26.30;61.10
40868;DHT22;26586;50.708;22.412;2022-08-25T01:15:05;26.30;60.60
40868;DHT22;26586;50.708;22.412;2022-08-25T01:17:45;26.30;60.70
40868;DHT22;26586;50.708;22.412;2022-08-25T01:20:13;26.30;60.40
40868;DHT22;26586;50.708;22.412;2022-08-25T01:22:40;26.30;60.80
40868;DHT22;26586;50.708;22.412;2022-08-25T01:27:59;26.20;60.30
40868;DHT22;26586;50.708;22.412;2022-08-25T01:30:26;26.20;60.20
40868;DHT22;26586;50.708;22.412;2022-08-25T01:32:52;26.20;60.00
40868;DHT22;26586;50.708;22.412;2022-08-25T01:35:19;26.30;60.30
40868;DHT22;26586;50.708;22.412;2022-08-25T01:37:45;26.20;60.60
40868;DHT22;26586;50.708;22.412;2022-08-25T01:40:11;26.20;60.00
40868;DHT22;26586;50.708;22.412;2022-08-25T01:42:57;26.20;60.40
40868;DHT22;26586;50.708;22.412;2022-08-25T01:45:25;26.20;60.10
40868;DHT22;26586;50.708;22.412;2022-08-25T01:47:51;26.20;61.10
40868;DHT22;26586;50.708;22.412;2022-08-25T01:50:18;26.20;60.40
40868;DHT22;26586;50.708;22.412;2022-08-25T01:52:55;26.20;60.70
40868;DHT22;26586;50.708;22.412;2022-08-25T01:55:23;26.10;60.30
40868;DHT22;26586;50.708;22.412;2022-08-25T01:57:50;26.20;61.50
40868;DHT22;26586;50.708;22.412;2022-08-25T02:00:18;26.10;60.90
40868;DHT22;26586;50.708;22.412;2022-08-25T02:02:45;26.20;60.60
40868;DHT22;26586;50.708;22.412;2022-08-25T02:05:13;26.20;60.40
40868;DHT22;26586;50.708;22.412;2022-08-25T02:07:42;26.10;60.30
40868;DHT22;26586;50.708;22.412;2022-08-25T02:10:10;26.10;60.10
40868;DHT22;26586;50.708;22.412;2022-08-25T02:12:37;26.10;59.90
40868;DHT22;26586;50.708;22.412;2022-08-25T02:15:05;26.10;60.00
40868;DHT22;26586;50.708;22.412;2022-08-25T02:17:34;26.10;60.10
40868;DHT22;26586;50.708;22.412;2022-08-25T02:20:04;26.10;60.40
40868;DHT22;26586;50.708;22.412;2022-08-25T02:22:31;26.10;60.90
40868;DHT22;26586;50.708;22.412;2022-08-25T02:24:57;26.10;60.30
40868;DHT22;26586;50.708;22.412;2022-08-25T02:27:24;26.10;60.00
40868;DHT22;26586;50.708;22.412;2022-08-25T02:29:50;26.10;60.50
40868;DHT22;26586;50.708;22.412;2022-08-25T02:32:17;26.10;60.20
40868;DHT22;26586;50.708;22.412;2022-08-25T02:34:43;26.10;60.50
40868;DHT22;26586;50.708;22.412;2022-08-25T02:37:09;26.10;60.20
40868;DHT22;26586;50.708;22.412;2022-08-25T02:39:35;26.10;60.30
40868;DHT22;26586;50.708;22.412;2022-08-25T02:42:02;26.10;60.30
40868;DHT22;26586;50.708;22.412;2022-08-25T02:44:28;26.00;61.00
40868;DHT22;26586;50.708;22.412;2022-08-25T02:46:54;26.00;60.80
40868;DHT22;26586;50.708;22.412;2022-08-25T02:49:20;26.00;60.60
40868;DHT22;26586;50.708;22.412;2022-08-25T02:51:46;26.00;60.30
40868;DHT22;26586;50.708;22.412;2022-08-25T02:54:12;26.00;60.40
40868;DHT22;26586;50.708;22.412;2022-08-25T02:56:38;26.00;60.60
40868;DHT22;26586;50.708;22.412;2022-08-25T02:59:05;26.00;60.50
40868;DHT22;26586;50.708;22.412;2022-08-25T03:01:32;26.00;60.50
40868;DHT22;26586;50.708;22.412;2022-08-25T03:03:59;26.00;60.30
40868;DHT22;26586;50.708;22.412;2022-08-25T03:06:26;26.00;59.90
40868;DHT22;26586;50.708;22.412;2022-08-25T03:08:53;26.00;59.70
40868;DHT22;26586;50.708;22.412;2022-08-25T03:11:20;26.00;59.50
40868;DHT22;26586;50.708;22.412;2022-08-25T03:13:46;25.90;59.70
40868;DHT22;26586;50.708;22.412;2022-08-25T03:16:16;26.00;59.80
40868;DHT22;26586;50.708;22.412;2022-08-25T03:18:42;25.90;59.60
40868;DHT22;26586;50.708;22.412;2022-08-25T03:21:09;25.90;60.30
40868;DHT22;26586;50.708;22.412;2022-08-25T03:23:37;25.90;60.40
40868;DHT22;26586;50.708;22.412;2022-08-25T03:26:03;25.90;61.20
40868;DHT22;26586;50.708;22.412;2022-08-25T03:28:48;25.90;60.90
40868;DHT22;26586;50.708;22.412;2022-08-25T03:31:14;25.90;65.50
40868;DHT22;26586;50.708;22.412;2022-08-25T03:33:41;25.90;65.00
40868;DHT22;26586;50.708;22.412;2022-08-25T03:36:08;25.90;63.50
40868;DHT22;26586;50.708;22.412;2022-08-25T03:38:37;26.00;62.50
40868;DHT22;26586;50.708;22.412;2022-08-25T03:41:13;25.90;62.20
40868;DHT22;26586;50.708;22.412;2022-08-25T03:43:40;25.90;61.70
40868;DHT22;26586;50.708;22.412;2022-08-25T03:46:06;25.90;61.90
40868;DHT22;26586;50.708;22.412;2022-08-25T03:48:32;25.90;61.20
40868;DHT22;26586;50.708;22.412;2022-08-25T03:50:58;25.90;61.10
40868;DHT22;26586;50.708;22.412;2022-08-25T03:53:24;25.90;60.90
40868;DHT22;26586;50.708;22.412;2022-08-25T03:55:50;25.80;60.70
40868;DHT22;26586;50.708;22.412;2022-08-25T03:58:17;25.80;60.70
40868;DHT22;26586;50.708;22.412;2022-08-25T04:00:43;25.80;60.70
40868;DHT22;26586;50.708;22.412;2022-08-25T04:03:09;25.80;60.40
40868;DHT22;26586;50.708;22.412;2022-08-25T04:05:36;25.80;60.40
40868;DHT22;26586;50.708;22.412;2022-08-25T04:08:02;25.80;60.20
40868;DHT22;26586;50.708;22.412;2022-08-25T04:10:29;25.80;60.20
40868;DHT22;26586;50.708;22.412;2022-08-25T04:12:56;25.70;59.90
40868;DHT22;26586;50.708;22.412;2022-08-25T04:15:22;25.80;60.00
40868;DHT22;26586;50.708;22.412;2022-08-25T04:17:49;25.80;59.80
40868;DHT22;26586;50.708;22.412;2022-08-25T04:20:16;25.70;59.20
40868;DHT22;26586;50.708;22.412;2022-08-25T04:22:42;25.80;59.00
40868;DHT22;26586;50.708;22.412;2022-08-25T04:25:08;25.70;59.70
40868;DHT22;26586;50.708;22.412;2022-08-25T04:27:35;25.70;60.10
40868;DHT22;26586;50.708;22.412;2022-08-25T04:30:03;25.70;59.80
40868;DHT22;26586;50.708;22.412;2022-08-25T04:32:29;25.70;59.60
40868;DHT22;26586;50.708;22.412;2022-08-25T04:34:57;25.70;59.40
40868;DHT22;26586;50.708;22.412;2022-08-25T04:37:23;25.70;59.40
40868;DHT22;26586;50.708;22.412;2022-08-25T04:39:49;25.70;59.30
40868;DHT22;26586;50.708;22.412;2022-08-25T04:42:16;25.70;59.40
40868;DHT22;26586;50.708;22.412;2022-08-25T04:44:42;25.70;59.30
40868;DHT22;26586;50.708;22.412;2022-08-25T04:47:08;25.70;59.30
40868;DHT22;26586;50.708;22.412;2022-08-25T04:49:36;25.60;59.30
40868;DHT22;26586;50.708;22.412;2022-08-25T04:52:02;25.60;59.50
40868;DHT22;26586;50.708;22.412;2022-08-25T04:54:28;25.60;59.60
40868;DHT22;26586;50.708;22.412;2022-08-25T04:56:54;25.60;59.30
40868;DHT22;26586;50.708;22.412;2022-08-25T04:59:20;25.60;59.10
40868;DHT22;26586;50.708;22.412;2022-08-25T05:01:46;25.60;59.40
40868;DHT22;26586;50.708;22.412;2022-08-25T05:04:14;25.60;59.40
40868;DHT22;26586;50.708;22.412;2022-08-25T05:06:42;25.60;59.40
40868;DHT22;26586;50.708;22.412;2022-08-25T05:09:08;25.60;59.50
40868;DHT22;26586;50.708;22.412;2022-08-25T05:11:35;25.60;59.80
40868;DHT22;26586;50.708;22.412;2022-08-25T05:14:01;25.60;59.60
40868;DHT22;26586;50.708;22.412;2022-08-25T05:16:27;25.60;59.80
40868;DHT22;26586;50.708;22.412;2022-08-25T05:18:55;25.70;60.10
40868;DHT22;26586;50.708;22.412;2022-08-25T05:21:22;25.60;60.10
40868;DHT22;26586;50.708;22.412;2022-08-25T05:23:48;25.60;60.90
40868;DHT22;26586;50.708;22.412;2022-08-25T05:26:19;25.70;61.10
40868;DHT22;26586;50.708;22.412;2022-08-25T05:28:47;25.70;61.70
40868;DHT22;26586;50.708;22.412;2022-08-25T05:31:14;25.70;62.10
40868;DHT22;26586;50.708;22.412;2022-08-25T05:33:40;25.70;62.70
40868;DHT22;26586;50.708;22.412;2022-08-25T05:36:08;25.70;63.10
40868;DHT22;26586;50.708;22.412;2022-08-25T05:38:35;25.70;63.60
40868;DHT22;26586;50.708;22.412;2022-08-25T05:41:06;25.70;63.40
40868;DHT22;26586;50.708;22.412;2022-08-25T05:43:32;25.80;63.20
40868;DHT22;26586;50.708;22.412;2022-08-25T05:45:59;25.80;63.20
40868;DHT22;26586;50.708;22.412;2022-08-25T05:48:26;25.80;61.10
40868;DHT22;26586;50.708;22.412;2022-08-25T05:50:53;25.80;60.40
40868;DHT22;26586;50.708;22.412;2022-08-25T05:53:20;25.90;60.30
40868;DHT22;26586;50.708;22.412;2022-08-25T05:55:48;25.90;59.90
40868;DHT22;26586;50.708;22.412;2022-08-25T05:58:14;25.90;59.50
40868;DHT22;26586;50.708;22.412;2022-08-25T06:00:40;26.00;59.70
40868;DHT22;26586;50.708;22.412;2022-08-25T06:03:06;26.00;59.80
40868;DHT22;26586;50.708;22.412;2022-08-25T06:05:33;26.10;59.70
40868;DHT22;26586;50.708;22.412;2022-08-25T06:07:59;26.10;59.50
40868;DHT22;26586;50.708;22.412;2022-08-25T06:10:26;26.20;59.20
40868;DHT22;26586;50.708;22.412;2022-08-25T06:12:52;26.30;59.20
40868;DHT22;26586;50.708;22.412;2022-08-25T06:15:22;26.30;58.90
40868;DHT22;26586;50.708;22.412;2022-08-25T06:17:49;26.40;58.70
40868;DHT22;26586;50.708;22.412;2022-08-25T06:20:16;26.40;58.40
40868;DHT22;26586;50.708;22.412;2022-08-25T06:22:43;26.50;58.50
40868;DHT22;26586;50.708;22.412;2022-08-25T06:25:12;26.50;58.00
40868;DHT22;26586;50.708;22.412;2022-08-25T06:27:39;26.60;57.80
40868;DHT22;26586;50.708;22.412;2022-08-25T06:30:07;26.60;57.50
40868;DHT22;26586;50.708;22.412;2022-08-25T06:32:35;26.70;57.30
40868;DHT22;26586;50.708;22.412;2022-08-25T06:35:04;26.70;57.20
40868;DHT22;26586;50.708;22.412;2022-08-25T06:37:31;26.80;56.90
40868;DHT22;26586;50.708;22.412;2022-08-25T06:39:57;26.90;56.80
40868;DHT22;26586;50.708;22.412;2022-08-25T06:42:23;27.00;56.70
40868;DHT22;26586;50.708;22.412;2022-08-25T06:44:50;27.00;56.50
40868;DHT22;26586;50.708;22.412;2022-08-25T06:47:17;27.10;56.30
40868;DHT22;26586;50.708;22.412;2022-08-25T06:49:43;27.20;56.20
40868;DHT22;26586;50.708;22.412;2022-08-25T06:52:10;27.20;56.30
40868;DHT22;26586;50.708;22.412;2022-08-25T06:54:37;27.30;56.10
40868;DHT22;26586;50.708;22.412;2022-08-25T06:57:03;27.40;55.90
40868;DHT22;26586;50.708;22.412;2022-08-25T06:59:30;27.40;55.60
40868;DHT22;26586;50.708;22.412;2022-08-25T07:01:57;27.50;55.80
40868;DHT22;26586;50.708;22.412;2022-08-25T07:04:24;27.60;56.00
40868;DHT22;26586;50.708;22.412;2022-08-25T07:06:50;27.70;56.00
40868;DHT22;26586;50.708;22.412;2022-08-25T07:09:17;27.80;55.80
40868;DHT22;26586;50.708;22.412;2022-08-25T07:11:43;27.80;55.60
40868;DHT22;26586;50.708;22.412;2022-08-25T07:14:12;27.90;54.60
40868;DHT22;26586;50.708;22.412;2022-08-25T07:16:40;28.00;54.50
40868;DHT22;26586;50.708;22.412;2022-08-25T07:19:06;28.00;54.10
40868;DHT22;26586;50.708;22.412;2022-08-25T07:21:33;28.10;54.70
40868;DHT22;26586;50.708;22.412;2022-08-25T07:24:01;28.20;55.00
40868;DHT22;26586;50.708;22.412;2022-08-25T07:26:30;28.30;55.00
40868;DHT22;26586;50.708;22.412;2022-08-25T07:28:57;28.40;54.90
40868;DHT22;26586;50.708;22.412;2022-08-25T07:31:24;28.40;55.20
40868;DHT22;26586;50.708;22.412;2022-08-25T07:33:50;28.50;55.20
40868;DHT22;26586;50.708;22.412;2022-08-25T07:36:35;28.50;55.50
40868;DHT22;26586;50.708;22.412;2022-08-25T07:39:02;28.60;55.60
40868;DHT22;26586;50.708;22.412;2022-08-25T07:41:35;28.70;55.40
40868;DHT22;26586;50.708;22.412;2022-08-25T07:44:03;28.70;54.70
40868;DHT22;26586;50.708;22.412;2022-08-25T07:46:30;28.80;54.90
40868;DHT22;26586;50.708;22.412;2022-08-25T07:48:56;28.80;55.10
40868;DHT22;26586;50.708;22.412;2022-08-25T07:51:22;28.90;55.50
40868;DHT22;26586;50.708;22.412;2022-08-25T07:53:48;28.90;55.30
40868;DHT22;26586;50.708;22.412;2022-08-25T07:56:15;29.00;56.00
40868;DHT22;26586;50.708;22.412;2022-08-25T07:58:42;29.10;55.10
40868;DHT22;26586;50.708;22.412;2022-08-25T08:01:14;29.10;55.20
40868;DHT22;26586;50.708;22.412;2022-08-25T08:03:40;29.20;54.60
40868;DHT22;26586;50.708;22.412;2022-08-25T08:06:12;29.20;53.60
40868;DHT22;26586;50.708;22.412;2022-08-25T08:08:40;29.30;53.30
40868;DHT22;26586;50.708;22.412;2022-08-25T08:11:17;29.30;54.30
40868;DHT22;26586;50.708;22.412;2022-08-25T08:13:45;29.40;54.20
40868;DHT22;26586;50.708;22.412;2022-08-25T08:16:14;29.50;55.10
40868;DHT22;26586;50.708;22.412;2022-08-25T08:18:42;29.50;55.70
40868;DHT22;26586;50.708;22.412;2022-08-25T08:21:29;29.60;55.90
40868;DHT22;26586;50.708;22.412;2022-08-25T08:23:56;29.70;56.40
40868;DHT22;26586;50.708;22.412;2022-08-25T08:26:22;29.70;55.90
40868;DHT22;26586;50.708;22.412;2022-08-25T08:28:49;29.80;56.20
40868;DHT22;26586;50.708;22.412;2022-08-25T08:31:19;29.80;56.20
40868;DHT22;26586;50.708;22.412;2022-08-25T08:33:47;29.90;55.80
40868;DHT22;26586;50.708;22.412;2022-08-25T08:36:14;29.90;54.80
40868;DHT22;26586;50.708;22.412;2022-08-25T08:38:41;29.90;53.90
40868;DHT22;26586;50.708;22.412;2022-08-25T08:43:59;30.00;52.70
40868;DHT22;26586;50.708;22.412;2022-08-25T08:46:37;30.00;52.60
40868;DHT22;26586;50.708;22.412;2022-08-25T08:49:15;30.10;52.80
40868;DHT22;26586;50.708;22.412;2022-08-25T08:51:55;30.20;53.20
40868;DHT22;26586;50.708;22.412;2022-08-25T08:54:25;30.20;51.80
40868;DHT22;26586;50.708;22.412;2022-08-25T08:57:13;30.30;51.70
40868;DHT22;26586;50.708;22.412;2022-08-25T08:59:48;30.30;51.40
40868;DHT22;26586;50.708;22.412;2022-08-25T09:02:37;30.40;50.30
40868;DHT22;26586;50.708;22.412;2022-08-25T09:05:11;30.40;50.60
40868;DHT22;26586;50.708;22.412;2022-08-25T09:07:58;30.50;50.00
40868;DHT22;26586;50.708;22.412;2022-08-25T09:10:38;30.50;48.60
40868;DHT22;26586;50.708;22.412;2022-08-25T09:15:54;30.60;48.30
40868;DHT22;26586;50.708;22.412;2022-08-25T09:18:56;30.60;48.30
40868;DHT22;26586;50.708;22.412;2022-08-25T09:32:14;30.90;48.50
40868;DHT22;26586;50.708;22.412;2022-08-25T09:34:41;30.90;47.30
40868;DHT22;26586;50.708;22.412;2022-08-25T09:37:08;30.90;43.70
40868;DHT22;26586;50.708;22.412;2022-08-25T09:39:34;31.00;42.80
40868;DHT22;26586;50.708;22.412;2022-08-25T09:42:01;31.00;45.00
40868;DHT22;26586;50.708;22.412;2022-08-25T09:44:33;31.00;45.60
40868;DHT22;26586;50.708;22.412;2022-08-25T09:47:25;31.00;46.00
40868;DHT22;26586;50.708;22.412;2022-08-25T09:49:59;31.10;45.30
40868;DHT22;26586;50.708;22.412;2022-08-25T09:55:25;31.20;45.40
40868;DHT22;26586;50.708;22.412;2022-08-25T09:57:54;31.20;42.60
40868;DHT22;26586;50.708;22.412;2022-08-25T10:00:28;31.30;43.70
40868;DHT22;26586;50.708;22.412;2022-08-25T10:03:20;31.30;45.20
40868;DHT22;26586;50.708;22.412;2022-08-25T10:08:37;31.40;41.80
40868;DHT22;26586;50.708;22.412;2022-08-25T10:11:07;31.50;41.30
40868;DHT22;26586;50.708;22.412;2022-08-25T10:13:39;31.50;42.30
40868;DHT22;26586;50.708;22.412;2022-08-25T10:16:22;31.50;41.60
40868;DHT22;26586;50.708;22.412;2022-08-25T10:19:12;31.50;42.40
40868;DHT22;26586;50.708;22.412;2022-08-25T10:21:40;31.50;42.60
40868;DHT22;26586;50.708;22.412;2022-08-25T10:24:09;31.60;42.70
40868;DHT22;26586;50.708;22.412;2022-08-25T10:27:10;31.60;43.20
40868;DHT22;26586;50.708;22.412;2022-08-25T10:35:16;31.60;41.70
40868;DHT22;26586;50.708;22.412;2022-08-25T10:41:20;31.70;38.00
40868;DHT22;26586;50.708;22.412;2022-08-25T10:49:55;31.80;37.40
40868;DHT22;26586;50.708;22.412;2022-08-25T10:58:24;31.80;38.40
40868;DHT22;26586;50.708;22.412;2022-08-25T11:01:41;31.80;38.90
40868;DHT22;26586;50.708;22.412;2022-08-25T11:06:58;31.90;39.80
40868;DHT22;26586;50.708;22.412;2022-08-25T11:09:36;31.90;37.60
40868;DHT22;26586;50.708;22.412;2022-08-25T11:12:18;31.90;37.10
40868;DHT22;26586;50.708;22.412;2022-08-25T11:14:52;31.90;36.00
40868;DHT22;26586;50.708;22.412;2022-08-25T11:20:09;31.90;40.50
40868;DHT22;26586;50.708;22.412;2022-08-25T11:22:45;31.90;37.50
40868;DHT22;26586;50.708;22.412;2022-08-25T11:30:19;31.90;37.40
40868;DHT22;26586;50.708;22.412;2022-08-25T11:32:50;31.80;39.10
40868;DHT22;26586;50.708;22.412;2022-08-25T11:35:36;31.80;40.40
40868;DHT22;26586;50.708;22.412;2022-08-25T11:49:32;31.90;37.80
40868;DHT22;26586;50.708;22.412;2022-08-25T11:52:05;31.90;37.90
40868;DHT22;26586;50.708;22.412;2022-08-25T11:54:44;31.80;38.80
40868;DHT22;26586;50.708;22.412;2022-08-25T12:00:01;31.80;40.40
40868;DHT22;26586;50.708;22.412;2022-08-25T12:16:06;31.90;41.50
40868;DHT22;26586;50.708;22.412;2022-08-25T12:18:37;31.80;41.90
40868;DHT22;26586;50.708;22.412;2022-08-25T12:24:02;31.90;42.90
40868;DHT22;26586;50.708;22.412;2022-08-25T12:26:32;31.90;42.90
40868;DHT22;26586;50.708;22.412;2022-08-25T12:29:24;31.90;40.80
40868;DHT22;26586;50.708;22.412;2022-08-25T12:31:57;31.90;41.00
40868;DHT22;26586;50.708;22.412;2022-08-25T12:37:17;31.80;42.10
40868;DHT22;26586;50.708;22.412;2022-08-25T12:39:57;31.80;41.40
40868;DHT22;26586;50.708;22.412;2022-08-25T12:42:38;31.80;41.30
40868;DHT22;26586;50.708;22.412;2022-08-25T12:47:52;31.80;43.40
40868;DHT22;26586;50.708;22.412;2022-08-25T12:53:06;31.80;40.60
40868;DHT22;26586;50.708;22.412;2022-08-25T12:55:35;31.80;40.50
40868;DHT22;26586;50.708;22.412;2022-08-25T12:58:04;31.80;40.20
40868;DHT22;26586;50.708;22.412;2022-08-25T13:06:30;31.70;42.30
40868;DHT22;26586;50.708;22.412;2022-08-25T13:11:53;31.70;40.70
40868;DHT22;26586;50.708;22.412;2022-08-25T13:14:37;31.70;39.10
40868;DHT22;26586;50.708;22.412;2022-08-25T13:17:04;31.70;39.30
40868;DHT22;26586;50.708;22.412;2022-08-25T13:19:31;31.70;38.60
40868;DHT22;26586;50.708;22.412;2022-08-25T13:21:59;31.60;38.70
40868;DHT22;26586;50.708;22.412;2022-08-25T13:24:29;31.70;40.50
40868;DHT22;26586;50.708;22.412;2022-08-25T13:27:02;31.70;39.70
40868;DHT22;26586;50.708;22.412;2022-08-25T13:29:31;31.70;41.30
40868;DHT22;26586;50.708;22.412;2022-08-25T13:32:04;31.70;40.50
40868;DHT22;26586;50.708;22.412;2022-08-25T13:34:33;31.70;39.90
40868;DHT22;26586;50.708;22.412;2022-08-25T13:37:14;31.70;40.30
40868;DHT22;26586;50.708;22.412;2022-08-25T13:42:59;31.60;41.80
40868;DHT22;26586;50.708;22.412;2022-08-25T13:45:28;31.60;40.30
40868;DHT22;26586;50.708;22.412;2022-08-25T13:47:56;31.60;40.30
40868;DHT22;26586;50.708;22.412;2022-08-25T13:53:13;31.60;40.10
40868;DHT22;26586;50.708;22.412;2022-08-25T13:55:49;31.60;41.10
40868;DHT22;26586;50.708;22.412;2022-08-25T13:58:28;31.60;40.30
40868;DHT22;26586;50.708;22.412;2022-08-25T14:01:18;31.60;39.90
40868;DHT22;26586;50.708;22.412;2022-08-25T14:03:46;31.60;41.00
40868;DHT22;26586;50.708;22.412;2022-08-25T14:08:44;31.50;37.30
40868;DHT22;26586;50.708;22.412;2022-08-25T14:11:31;31.50;38.10
40868;DHT22;26586;50.708;22.412;2022-08-25T14:14:08;31.50;38.20
40868;DHT22;26586;50.708;22.412;2022-08-25T14:16:49;31.50;37.40
40868;DHT22;26586;50.708;22.412;2022-08-25T14:19:18;31.50;39.10
40868;DHT22;26586;50.708;22.412;2022-08-25T14:21:46;31.50;38.10
40868;DHT22;26586;50.708;22.412;2022-08-25T14:24:19;31.40;36.60
40868;DHT22;26586;50.708;22.412;2022-08-25T14:26:46;31.40;37.80
40868;DHT22;26586;50.708;22.412;2022-08-25T14:29:13;31.40;37.20
40868;DHT22;26586;50.708;22.412;2022-08-25T14:31:42;31.40;36.30
40868;DHT22;26586;50.708;22.412;2022-08-25T14:34:16;31.40;37.20
40868;DHT22;26586;50.708;22.412;2022-08-25T14:36:43;31.40;38.60
40868;DHT22;26586;50.708;22.412;2022-08-25T14:39:10;31.40;38.80
40868;DHT22;26586;50.708;22.412;2022-08-25T14:41:39;31.40;38.80
40868;DHT22;26586;50.708;22.412;2022-08-25T14:44:06;31.40;38.60
40868;DHT22;26586;50.708;22.412;2022-08-25T14:46:36;31.30;39.30
40868;DHT22;26586;50.708;22.412;2022-08-25T14:49:06;31.30;39.30
40868;DHT22;26586;50.708;22.412;2022-08-25T14:51:33;31.30;38.10
40868;DHT22;26586;50.708;22.412;2022-08-25T14:54:03;31.30;38.00
40868;DHT22;26586;50.708;22.412;2022-08-25T14:56:30;31.30;38.20
40868;DHT22;26586;50.708;22.412;2022-08-25T14:58:57;31.30;40.20
40868;DHT22;26586;50.708;22.412;2022-08-25T15:01:25;31.30;39.40
40868;DHT22;26586;50.708;22.412;2022-08-25T15:03:54;31.30;40.20
40868;DHT22;26586;50.708;22.412;2022-08-25T15:06:20;31.30;41.30
40868;DHT22;26586;50.708;22.412;2022-08-25T15:08:46;31.20;40.60
40868;DHT22;26586;50.708;22.412;2022-08-25T15:11:32;31.20;40.70
40868;DHT22;26586;50.708;22.412;2022-08-25T15:13:58;31.20;39.30
40868;DHT22;26586;50.708;22.412;2022-08-25T15:16:33;31.20;40.10
40868;DHT22;26586;50.708;22.412;2022-08-25T15:19:06;31.20;40.30
40868;DHT22;26586;50.708;22.412;2022-08-25T15:21:33;31.20;40.80
40868;DHT22;26586;50.708;22.412;2022-08-25T15:24:00;31.20;41.70
40868;DHT22;26586;50.708;22.412;2022-08-25T15:26:26;31.20;41.00
40868;DHT22;26586;50.708;22.412;2022-08-25T15:28:53;31.10;41.30
40868;DHT22;26586;50.708;22.412;2022-08-25T15:31:20;31.10;41.80
40868;DHT22;26586;50.708;22.412;2022-08-25T15:33:46;31.10;41.00
40868;DHT22;26586;50.708;22.412;2022-08-25T15:36:15;31.10;40.90
40868;DHT22;26586;50.708;22.412;2022-08-25T15:38:43;31.10;37.70
40868;DHT22;26586;50.708;22.412;2022-08-25T15:41:10;31.00;39.90
40868;DHT22;26586;50.708;22.412;2022-08-25T15:43:37;31.00;41.50
40868;DHT22;26586;50.708;22.412;2022-08-25T15:46:04;31.00;42.30
40868;DHT22;26586;50.708;22.412;2022-08-25T15:48:32;31.00;42.80
40868;DHT22;26586;50.708;22.412;2022-08-25T15:50:58;31.00;43.30
40868;DHT22;26586;50.708;22.412;2022-08-25T15:53:27;31.00;43.00
40868;DHT22;26586;50.708;22.412;2022-08-25T15:55:53;31.00;43.50
40868;DHT22;26586;50.708;22.412;2022-08-25T15:58:21;30.90;43.10
40868;DHT22;26586;50.708;22.412;2022-08-25T16:00:51;30.90;43.90
40868;DHT22;26586;50.708;22.412;2022-08-25T16:03:17;31.00;44.10
40868;DHT22;26586;50.708;22.412;2022-08-25T16:05:44;30.90;44.10
40868;DHT22;26586;50.708;22.412;2022-08-25T16:08:10;30.90;43.90
40868;DHT22;26586;50.708;22.412;2022-08-25T16:10:39;30.90;45.40
40868;DHT22;26586;50.708;22.412;2022-08-25T16:13:07;30.90;44.50
40868;DHT22;26586;50.708;22.412;2022-08-25T16:15:33;30.90;44.20
40868;DHT22;26586;50.708;22.412;2022-08-25T16:18:02;30.80;44.50
40868;DHT22;26586;50.708;22.412;2022-08-25T16:20:30;30.80;44.40
40868;DHT22;26586;50.708;22.412;2022-08-25T16:22:56;30.80;44.80
40868;DHT22;26586;50.708;22.412;2022-08-25T16:25:26;30.80;45.80
40868;DHT22;26586;50.708;22.412;2022-08-25T16:27:52;30.80;44.70
40868;DHT22;26586;50.708;22.412;2022-08-25T16:30:18;30.80;45.00
40868;DHT22;26586;50.708;22.412;2022-08-25T16:32:45;30.70;45.00
40868;DHT22;26586;50.708;22.412;2022-08-25T16:35:12;30.70;45.50
40868;DHT22;26586;50.708;22.412;2022-08-25T16:37:38;30.70;45.50
40868;DHT22;26586;50.708;22.412;2022-08-25T16:40:05;30.70;46.30
40868;DHT22;26586;50.708;22.412;2022-08-25T16:42:32;30.70;45.80
40868;DHT22;26586;50.708;22.412;2022-08-25T16:44:58;30.70;46.00
40868;DHT22;26586;50.708;22.412;2022-08-25T16:47:25;30.60;46.00
40868;DHT22;26586;50.708;22.412;2022-08-25T16:49:51;30.60;46.20
40868;DHT22;26586;50.708;22.412;2022-08-25T16:52:17;30.50;46.20
40868;DHT22;26586;50.708;22.412;2022-08-25T16:55:02;30.50;46.10
40868;DHT22;26586;50.708;22.412;2022-08-25T16:57:51;30.50;46.20
40868;DHT22;26586;50.708;22.412;2022-08-25T17:00:24;30.50;46.30
40868;DHT22;26586;50.708;22.412;2022-08-25T17:03:00;30.40;46.40
40868;DHT22;26586;50.708;22.412;2022-08-25T17:05:31;30.40;46.50
40868;DHT22;26586;50.708;22.412;2022-08-25T17:07:59;30.30;46.70
40868;DHT22;26586;50.708;22.412;2022-08-25T17:10:44;30.40;46.60
40868;DHT22;26586;50.708;22.412;2022-08-25T17:13:11;30.30;46.80
40868;DHT22;26586;50.708;22.412;2022-08-25T17:15:40;30.30;46.50
40868;DHT22;26586;50.708;22.412;2022-08-25T17:18:06;30.20;46.90
40868;DHT22;26586;50.708;22.412;2022-08-25T17:20:33;30.20;47.20
40868;DHT22;26586;50.708;22.412;2022-08-25T17:22:59;30.20;47.60
40868;DHT22;26586;50.708;22.412;2022-08-25T17:25:26;30.20;46.80
40868;DHT22;26586;50.708;22.412;2022-08-25T17:27:52;30.20;46.80